Terminal Aerodrome Forecast
Issued by NWS

Home | Current Version | Previous Version | Text Only | Print | Product List | Glossary On
Versions: 1 2 3 4 5 6 7 8 9 10 11 12 13 14 15 16 17 18 19 20
759
FTUS44 KBMX 201120
TAFTOI
TAF
KTOI 201120Z 2012/2112 12003KT P6SM SKC
     FM201400 13007KT P6SM SCT007 BKN025
      TEMPO 2014/2016 BKN007
     FM201800 16012G18KT P6SM VCSH BKN040
     FM210000 15007KT P6SM BKN050
     FM210400 14005KT P6SM OVC025=

USA.gov is the U.S. government's official web portal to all federal, state and local government web resources and services.